createdAt,value
2022-10-16T00:01:14.849Z,10.93
2022-10-16T00:03:45.811Z,10.91
2022-10-16T00:06:14.686Z,10.89
2022-10-16T00:08:43.146Z,10.89
2022-10-16T00:11:13.775Z,10.85
2022-10-16T00:13:43.810Z,10.83
2022-10-16T00:16:13.270Z,10.78
2022-10-16T00:18:41.585Z,10.71
2022-10-16T00:21:13.465Z,10.67
2022-10-16T00:23:42.019Z,10.65
2022-10-16T00:26:12.249Z,10.61
2022-10-16T00:28:40.997Z,10.60
2022-10-16T00:31:10.775Z,10.54
2022-10-16T00:33:40.790Z,10.53
2022-10-16T00:36:13.512Z,10.52
2022-10-16T00:38:41.850Z,10.55
2022-10-16T00:41:13.862Z,10.60
2022-10-16T00:43:44.882Z,10.53
2022-10-16T00:46:18.301Z,10.57
2022-10-16T00:48:51.587Z,10.52
2022-10-16T00:51:25.736Z,10.54
2022-10-16T00:53:54.615Z,10.46
2022-10-16T00:56:22.977Z,10.52
2022-10-16T00:58:51.587Z,10.49
2022-10-16T01:01:19.766Z,10.51
2022-10-16T01:03:48.166Z,10.49
2022-10-16T01:06:27.351Z,10.42
2022-10-16T01:09:04.543Z,10.46
2022-10-16T01:11:38.169Z,10.46
2022-10-16T01:14:17.346Z,10.43
2022-10-16T01:16:51.714Z,10.36
2022-10-16T01:19:28.946Z,10.37
2022-10-16T01:22:00.694Z,10.36
2022-10-16T01:24:34.886Z,10.38
2022-10-16T01:27:11.958Z,10.31
2022-10-16T01:29:44.656Z,10.34
2022-10-16T01:32:19.155Z,10.34
2022-10-16T01:34:53.186Z,10.33
2022-10-16T01:37:29.566Z,10.29
2022-10-16T01:40:02.686Z,10.28
2022-10-16T01:42:37.433Z,10.26
2022-10-16T01:45:08.974Z,10.24
2022-10-16T01:47:38.778Z,10.16
2022-10-16T01:50:09.049Z,10.11
2022-10-16T01:52:41.713Z,10.13
2022-10-16T01:55:12.905Z,10.00
2022-10-16T01:57:47.071Z,9.95
2022-10-16T02:00:19.081Z,9.94
2022-10-16T02:02:51.407Z,10.01
2022-10-16T02:05:26.029Z,9.98
2022-10-16T02:07:54.390Z,9.93
2022-10-16T02:10:23.144Z,9.94
2022-10-16T02:13:00.325Z,9.98
2022-10-16T02:15:28.477Z,9.90
2022-10-16T02:17:56.564Z,10.03
2022-10-16T02:20:29.502Z,10.04
2022-10-16T02:22:59.011Z,10.01
2022-10-16T02:25:31.978Z,10.02
2022-10-16T02:28:05.700Z,10.03
2022-10-16T02:30:38.850Z,9.98
2022-10-16T02:33:10.457Z,9.95
2022-10-16T02:35:40.287Z,9.89
2022-10-16T02:40:39.925Z,9.87
2022-10-16T02:43:10.163Z,9.92
2022-10-16T02:45:38.545Z,9.91
2022-10-16T02:48:07.338Z,9.91
2022-10-16T02:50:35.446Z,9.91
2022-10-16T02:53:03.874Z,9.81
2022-10-16T02:55:32.118Z,9.76
2022-10-16T02:58:00.337Z,9.67
2022-10-16T03:00:29.866Z,9.45
2022-10-16T03:02:57.956Z,9.05
2022-10-16T03:05:26.047Z,8.95
2022-10-16T03:07:54.758Z,8.94
2022-10-16T03:10:22.849Z,8.93
2022-10-16T03:12:50.908Z,8.95
2022-10-16T03:15:19.051Z,9.01
2022-10-16T03:17:48.548Z,8.94
2022-10-16T03:20:16.808Z,8.95
2022-10-16T03:22:45.048Z,9.03
2022-10-16T03:25:13.176Z,9.10
2022-10-16T03:27:41.330Z,9.20
2022-10-16T03:30:10.951Z,9.28
2022-10-16T03:32:39.007Z,9.23
2022-10-16T03:35:09.669Z,9.07
2022-10-16T03:37:37.745Z,9.07
2022-10-16T03:40:06.897Z,9.14
2022-10-16T03:42:34.972Z,9.12
2022-10-16T03:45:03.151Z,8.93
2022-10-16T03:47:31.743Z,8.90
2022-10-16T03:49:59.798Z,8.69
2022-10-16T03:52:29.791Z,8.66
2022-10-16T03:54:57.886Z,8.64
2022-10-16T03:57:26.189Z,8.59
2022-10-16T03:59:54.427Z,8.69
2022-10-16T04:02:22.566Z,8.66
2022-10-16T04:04:50.748Z,8.57
2022-10-16T04:07:18.910Z,8.64
2022-10-16T04:09:48.453Z,8.72
2022-10-16T04:12:16.633Z,8.87
2022-10-16T04:14:44.823Z,8.96
2022-10-16T04:17:12.951Z,9.00
2022-10-16T04:19:40.978Z,8.84
2022-10-16T04:22:09.191Z,8.71
2022-10-16T04:24:37.274Z,8.62
2022-10-16T04:27:06.897Z,8.47
2022-10-16T04:29:35.014Z,8.49
2022-10-16T04:32:03.084Z,8.52
2022-10-16T04:34:31.243Z,8.50
2022-10-16T04:36:59.426Z,8.50
2022-10-16T04:39:27.609Z,8.48
2022-10-16T04:41:55.744Z,8.34
2022-10-16T04:44:25.282Z,8.45
2022-10-16T04:46:53.887Z,8.49
2022-10-16T04:49:21.954Z,8.63
2022-10-16T04:51:50.153Z,8.80
2022-10-16T04:54:18.255Z,8.86
2022-10-16T04:56:48.445Z,9.00
2022-10-16T04:59:17.030Z,9.00
2022-10-16T05:01:46.791Z,8.98
2022-10-16T05:04:16.065Z,9.04
2022-10-16T05:06:44.667Z,9.22
2022-10-16T05:09:12.856Z,9.31
2022-10-16T05:11:40.957Z,9.42
2022-10-16T05:14:09.043Z,9.48
2022-10-16T05:16:37.140Z,9.61
2022-10-16T05:21:54.949Z,9.88
2022-10-16T05:24:23.087Z,10.00
2022-10-16T05:26:51.862Z,9.99
2022-10-16T05:29:19.952Z,10.17
2022-10-16T05:31:48.158Z,10.20
2022-10-16T05:34:17.656Z,10.21
2022-10-16T05:36:46.318Z,10.26
2022-10-16T05:39:16.158Z,10.29
2022-10-16T05:41:44.401Z,10.25
2022-10-16T05:44:12.677Z,10.36
2022-10-16T05:46:40.761Z,10.62
2022-10-16T05:49:08.854Z,10.69
2022-10-16T05:51:38.311Z,10.77
2022-10-16T05:54:06.602Z,10.77
2022-10-16T05:56:34.728Z,10.88
2022-10-16T05:59:02.825Z,10.83
2022-10-16T06:01:32.039Z,10.85
2022-10-16T06:04:00.286Z,11.02
2022-10-16T06:06:30.684Z,11.18
2022-10-16T06:09:00.874Z,11.20
2022-10-16T06:11:31.195Z,11.23
2022-10-16T06:14:07.909Z,11.31
2022-10-16T06:16:37.054Z,11.39
2022-10-16T06:19:07.479Z,11.56
2022-10-16T06:21:36.183Z,11.70
2022-10-16T06:24:06.406Z,11.76
2022-10-16T06:26:34.517Z,11.77
2022-10-16T06:29:03.044Z,11.76
2022-10-16T06:31:34.515Z,11.83
2022-10-16T06:34:05.722Z,11.91
2022-10-16T06:36:33.835Z,12.00
2022-10-16T06:39:01.982Z,12.09
2022-10-16T06:41:31.653Z,12.13
2022-10-16T06:43:59.755Z,12.16
2022-10-16T06:46:29.060Z,12.28
2022-10-16T06:48:57.207Z,12.37
2022-10-16T06:51:27.291Z,12.40
2022-10-16T06:54:05.041Z,12.45
2022-10-16T06:56:36.010Z,12.55
2022-10-16T06:59:05.143Z,12.55
2022-10-16T07:01:33.373Z,12.63
2022-10-16T07:04:03.203Z,12.81
2022-10-16T07:06:34.637Z,12.83
2022-10-16T07:09:06.275Z,12.94
2022-10-16T07:11:36.697Z,13.01
2022-10-16T07:14:05.550Z,13.01
2022-10-16T07:16:35.342Z,12.95
2022-10-16T07:19:05.078Z,13.23
2022-10-16T07:21:36.951Z,13.39
2022-10-16T07:24:07.333Z,13.42
2022-10-16T07:26:40.113Z,13.44
2022-10-16T07:29:09.516Z,13.46
2022-10-16T07:31:39.315Z,13.53
2022-10-16T07:34:07.622Z,13.58
2022-10-16T07:36:35.901Z,13.72
2022-10-16T07:39:04.037Z,13.90
2022-10-16T07:41:33.881Z,13.92
2022-10-16T07:44:03.418Z,13.96
2022-10-16T07:46:32.162Z,14.09
2022-10-16T07:49:00.196Z,14.17
2022-10-16T07:51:28.894Z,14.22
2022-10-16T07:53:57.243Z,14.31
2022-10-16T07:56:25.924Z,14.32
2022-10-16T07:58:54.316Z,14.54
2022-10-16T08:01:23.947Z,14.58
2022-10-16T08:03:53.770Z,14.66
2022-10-16T08:06:27.554Z,14.67
2022-10-16T08:08:56.920Z,14.91
2022-10-16T08:11:25.569Z,14.76
2022-10-16T08:13:53.868Z,14.78
2022-10-16T08:16:23.720Z,15.01
2022-10-16T08:18:52.852Z,14.91
2022-10-16T08:21:22.428Z,14.80
2022-10-16T08:23:54.835Z,14.89
2022-10-16T08:26:27.114Z,15.04
2022-10-16T08:28:55.621Z,14.99
2022-10-16T08:31:25.625Z,15.06
2022-10-16T08:33:53.955Z,14.86
2022-10-16T08:36:22.238Z,14.99
2022-10-16T08:38:52.992Z,14.97
2022-10-16T08:41:59.030Z,15.11
2022-10-16T08:45:02.015Z,14.83
2022-10-16T08:47:44.680Z,14.91
2022-10-16T08:50:15.375Z,15.07
2022-10-16T08:52:47.045Z,15.11
2022-10-16T08:55:30.778Z,15.22
2022-10-16T08:57:59.272Z,15.31
2022-10-16T09:00:29.482Z,15.38
2022-10-16T09:03:10.360Z,15.09
2022-10-16T09:05:54.639Z,15.06
2022-10-16T09:08:31.907Z,15.19
2022-10-16T09:11:06.344Z,15.31
2022-10-16T09:13:42.466Z,15.35
2022-10-16T09:16:22.027Z,15.48
2022-10-16T09:19:00.552Z,15.29
2022-10-16T09:21:31.780Z,15.10
2022-10-16T09:24:02.263Z,15.41
2022-10-16T09:26:30.842Z,15.26
2022-10-16T09:28:59.018Z,15.15
2022-10-16T09:31:27.349Z,15.25
2022-10-16T09:34:02.069Z,15.49
2022-10-16T09:36:37.583Z,15.66
2022-10-16T09:39:08.075Z,15.53
2022-10-16T09:41:39.809Z,15.83
2022-10-16T09:44:21.743Z,15.55
2022-10-16T09:46:49.833Z,15.55
2022-10-16T09:49:27.423Z,15.31
2022-10-16T09:52:06.474Z,15.55
2022-10-16T09:54:34.642Z,15.64
2022-10-16T09:57:09.582Z,15.56
2022-10-16T09:59:48.837Z,15.73
2022-10-16T10:02:18.815Z,15.54
2022-10-16T10:04:52.550Z,15.64
2022-10-16T10:07:26.412Z,15.65
2022-10-16T10:09:55.933Z,15.61
2022-10-16T10:12:27.290Z,15.44
2022-10-16T10:14:58.384Z,15.65
2022-10-16T10:17:28.640Z,15.72
2022-10-16T10:20:01.743Z,15.77
2022-10-16T10:22:41.127Z,15.69
2022-10-16T10:25:24.158Z,15.77
2022-10-16T10:28:20.092Z,15.90
2022-10-16T10:30:57.374Z,15.78
2022-10-16T10:33:36.528Z,15.70
2022-10-16T10:36:18.152Z,15.70
2022-10-16T10:38:52.743Z,15.74
2022-10-16T10:41:57.417Z,15.85
2022-10-16T10:44:34.313Z,15.83
2022-10-16T10:47:11.531Z,15.79
2022-10-16T10:49:51.903Z,16.02
2022-10-16T10:52:39.070Z,16.12
2022-10-16T10:55:17.168Z,15.89
2022-10-16T10:58:01.684Z,15.76
2022-10-16T11:00:37.386Z,15.76
2022-10-16T11:03:21.147Z,15.67
2022-10-16T11:05:50.830Z,15.50
2022-10-16T11:08:22.987Z,15.57
2022-10-16T11:10:55.796Z,15.73
2022-10-16T11:13:32.989Z,15.82
2022-10-16T11:16:04.845Z,16.07
2022-10-16T11:18:42.163Z,15.66
2022-10-16T11:21:14.246Z,15.71
2022-10-16T11:23:51.332Z,15.82
2022-10-16T11:26:23.475Z,15.86
2022-10-16T11:28:55.673Z,16.00
2022-10-16T11:31:31.138Z,15.81
2022-10-16T11:34:07.577Z,15.82
2022-10-16T11:36:41.536Z,15.82
2022-10-16T11:39:21.193Z,15.78
2022-10-16T11:41:53.827Z,15.66
2022-10-16T11:44:36.712Z,15.74
2022-10-16T11:47:39.853Z,15.94
2022-10-16T11:50:11.283Z,15.81
2022-10-16T11:52:43.051Z,15.74
2022-10-16T11:55:19.728Z,15.88
2022-10-16T11:57:51.995Z,15.89
2022-10-16T12:00:26.219Z,15.88
2022-10-16T12:03:06.816Z,15.95
2022-10-16T12:05:49.057Z,15.81
2022-10-16T12:08:18.526Z,15.74
2022-10-16T12:10:49.835Z,15.57
2022-10-16T12:13:35.828Z,15.60
2022-10-16T12:16:09.344Z,15.79
2022-10-16T12:18:37.462Z,15.71
2022-10-16T12:21:07.862Z,15.70
2022-10-16T12:23:40.437Z,15.79
2022-10-16T12:26:10.024Z,15.97
2022-10-16T12:28:40.230Z,15.90
2022-10-16T12:31:11.090Z,15.52
2022-10-16T12:33:42.257Z,15.56
2022-10-16T12:36:18.041Z,15.67
2022-10-16T12:38:50.363Z,15.66
2022-10-16T12:41:29.369Z,15.67
2022-10-16T12:43:58.167Z,15.67
2022-10-16T12:46:37.624Z,15.59
2022-10-16T12:49:25.570Z,15.56
2022-10-16T12:51:53.961Z,15.66
2022-10-16T12:54:32.301Z,15.62
2022-10-16T12:57:14.961Z,15.55
2022-10-16T12:59:53.325Z,15.50
2022-10-16T13:02:54.724Z,15.57
2022-10-16T13:05:37.521Z,15.41
2022-10-16T13:08:21.088Z,15.43
2022-10-16T13:11:03.620Z,15.34
2022-10-16T13:14:10.146Z,15.38
2022-10-16T13:16:51.325Z,15.45
2022-10-16T13:19:29.274Z,15.38
2022-10-16T13:22:04.484Z,15.41
2022-10-16T13:24:51.813Z,15.36
2022-10-16T13:27:36.941Z,15.30
2022-10-16T13:30:14.442Z,15.48
2022-10-16T13:32:50.216Z,15.36
2022-10-16T13:35:24.097Z,15.30
2022-10-16T13:37:52.677Z,15.28
2022-10-16T13:40:23.671Z,15.27
2022-10-16T13:42:52.677Z,15.30
2022-10-16T13:45:22.349Z,15.29
2022-10-16T13:47:52.236Z,15.36
2022-10-16T13:50:20.949Z,15.31
2022-10-16T13:52:50.578Z,15.21
2022-10-16T13:55:20.753Z,15.18
2022-10-16T13:57:48.822Z,15.17
2022-10-16T14:00:22.105Z,15.19
2022-10-16T14:02:58.567Z,15.00
2022-10-16T14:05:26.961Z,14.94
2022-10-16T14:07:56.873Z,14.88
2022-10-16T14:10:28.654Z,14.94
2022-10-16T14:12:59.066Z,14.83
2022-10-16T14:15:27.608Z,14.74
2022-10-16T14:17:57.359Z,14.76
2022-10-16T14:20:28.867Z,14.76
2022-10-16T14:23:05.363Z,14.63
2022-10-16T14:25:34.927Z,14.58
2022-10-16T14:28:05.369Z,14.56
2022-10-16T14:30:35.318Z,14.51
2022-10-16T14:33:07.646Z,14.53
2022-10-16T14:35:37.870Z,14.51
2022-10-16T14:38:08.872Z,14.43
2022-10-16T14:40:39.221Z,14.44
2022-10-16T14:43:07.677Z,14.26
2022-10-16T14:45:37.748Z,14.21
2022-10-16T14:48:19.972Z,14.14
2022-10-16T14:50:48.438Z,14.15
2022-10-16T14:53:17.281Z,13.97
2022-10-16T14:55:45.673Z,13.88
2022-10-16T14:58:17.534Z,13.83
2022-10-16T15:00:45.722Z,13.75
2022-10-16T15:03:15.934Z,13.76
2022-10-16T15:05:44.103Z,13.63
2022-10-16T15:08:13.436Z,13.53
2022-10-16T15:10:45.265Z,13.49
2022-10-16T15:13:16.578Z,13.51
2022-10-16T15:15:46.757Z,13.43
2022-10-16T15:18:21.237Z,13.33
2022-10-16T15:20:52.106Z,13.28
2022-10-16T15:23:22.295Z,13.24
2022-10-16T15:25:52.013Z,13.19
2022-10-16T15:28:21.671Z,13.19
2022-10-16T15:30:52.028Z,12.98
2022-10-16T15:33:24.760Z,12.91
2022-10-16T15:35:54.191Z,12.86
2022-10-16T15:38:24.630Z,12.81
2022-10-16T15:40:52.855Z,12.82
2022-10-16T15:43:21.221Z,12.80
2022-10-16T15:46:02.502Z,12.66
2022-10-16T15:48:33.237Z,12.61
2022-10-16T15:51:01.794Z,12.57
2022-10-16T15:53:29.905Z,12.54
2022-10-16T15:55:58.022Z,12.47
2022-10-16T15:58:26.654Z,12.46
2022-10-16T16:00:58.233Z,12.30
2022-10-16T16:03:26.495Z,12.26
2022-10-16T16:05:56.360Z,12.15
2022-10-16T16:08:24.766Z,12.19
2022-10-16T16:11:00.555Z,12.27
2022-10-16T16:13:29.273Z,12.20
2022-10-16T16:15:57.458Z,12.11
2022-10-16T16:18:26.133Z,12.01
2022-10-16T16:20:55.813Z,11.96
2022-10-16T16:23:24.491Z,11.94
2022-10-16T16:26:06.670Z,11.95
2022-10-16T16:28:35.051Z,11.95
2022-10-16T16:31:03.210Z,11.79
2022-10-16T16:33:32.544Z,11.70
2022-10-16T16:36:03.747Z,11.58
2022-10-16T16:38:33.810Z,11.64
2022-10-16T16:41:02.475Z,11.56
2022-10-16T16:43:30.712Z,11.61
2022-10-16T16:46:04.097Z,11.55
2022-10-16T16:48:32.248Z,11.32
2022-10-16T16:51:06.610Z,11.35
2022-10-16T16:53:36.124Z,11.16
2022-10-16T16:56:05.146Z,11.22
2022-10-16T16:58:34.640Z,11.21
2022-10-16T17:01:19.419Z,11.08
2022-10-16T17:03:52.146Z,11.09
2022-10-16T17:06:22.571Z,11.12
2022-10-16T17:08:51.960Z,11.13
2022-10-16T17:11:22.904Z,11.01
2022-10-16T17:13:55.559Z,10.96
2022-10-16T17:16:28.178Z,10.89
2022-10-16T17:18:56.361Z,10.87
2022-10-16T17:21:26.967Z,10.85
2022-10-16T17:23:56.171Z,10.71
2022-10-16T17:26:24.350Z,10.67
2022-10-16T17:28:53.492Z,10.64
2022-10-16T17:31:24.481Z,10.62
2022-10-16T17:33:53.117Z,10.70
2022-10-16T17:36:22.112Z,10.66
2022-10-16T17:38:51.666Z,10.62
2022-10-16T17:41:22.963Z,10.63
2022-10-16T17:43:51.845Z,10.58
2022-10-16T17:46:22.024Z,10.56
2022-10-16T17:48:54.441Z,10.55
2022-10-16T17:51:24.493Z,10.48
2022-10-16T17:53:55.546Z,10.49
2022-10-16T17:56:26.907Z,10.43
2022-10-16T17:58:57.045Z,10.51
2022-10-16T18:01:26.686Z,10.54
2022-10-16T18:03:57.167Z,10.51
2022-10-16T18:06:26.135Z,10.44
2022-10-16T18:08:56.470Z,10.52
2022-10-16T18:11:24.705Z,10.52
2022-10-16T18:13:53.726Z,10.46
2022-10-16T18:16:22.915Z,10.44
2022-10-16T18:18:51.734Z,10.44
2022-10-16T18:21:21.766Z,10.51
2022-10-16T18:23:52.216Z,10.52
2022-10-16T18:26:23.157Z,10.58
2022-10-16T18:28:54.314Z,10.45
2022-10-16T18:31:25.711Z,10.38
2022-10-16T18:33:54.057Z,10.43
2022-10-16T18:36:24.766Z,10.37
2022-10-16T18:38:53.005Z,10.42
2022-10-16T18:41:23.023Z,10.29
2022-10-16T18:43:51.100Z,10.26
2022-10-16T18:46:21.065Z,10.25
2022-10-16T18:48:51.017Z,10.29
2022-10-16T18:51:22.287Z,10.22
2022-10-16T18:53:53.432Z,10.15
2022-10-16T18:56:24.919Z,10.09
2022-10-16T18:58:54.476Z,10.17
2022-10-16T19:01:25.187Z,10.17
2022-10-16T19:03:56.695Z,10.14
2022-10-16T19:06:25.551Z,10.11
2022-10-16T19:08:55.133Z,10.14
2022-10-16T19:11:26.785Z,10.18
2022-10-16T19:13:55.991Z,10.13
2022-10-16T19:16:26.091Z,10.17
2022-10-16T19:18:55.898Z,10.13
2022-10-16T19:21:25.546Z,10.13
2022-10-16T19:23:54.347Z,10.21
2022-10-16T19:26:24.329Z,10.16
2022-10-16T19:28:53.745Z,10.22
2022-10-16T19:31:24.786Z,10.13
2022-10-16T19:33:54.263Z,10.11
2022-10-16T19:36:24.346Z,10.08
2022-10-16T19:38:56.078Z,10.19
2022-10-16T19:41:26.155Z,10.16
2022-10-16T19:43:54.431Z,10.18
2022-10-16T19:46:24.448Z,10.10
2022-10-16T19:48:55.828Z,10.06
2022-10-16T19:51:24.358Z,10.05
2022-10-16T19:53:56.469Z,10.04
2022-10-16T19:56:27.902Z,9.98
2022-10-16T19:58:58.806Z,9.96
2022-10-16T20:01:28.502Z,9.97
2022-10-16T20:03:56.971Z,9.87
2022-10-16T20:06:25.933Z,9.83
2022-10-16T20:08:55.554Z,9.87
2022-10-16T20:11:27.926Z,9.86
2022-10-16T20:13:56.461Z,9.91
2022-10-16T20:16:25.194Z,9.91
2022-10-16T20:18:53.988Z,9.86
2022-10-16T20:21:25.231Z,9.79
2022-10-16T20:23:53.603Z,9.70
2022-10-16T20:26:24.094Z,9.74
2022-10-16T20:28:55.411Z,9.70
2022-10-16T20:31:25.503Z,9.62
2022-10-16T20:33:55.188Z,9.79
2022-10-16T20:36:25.973Z,9.79
2022-10-16T20:38:54.547Z,9.84
2022-10-16T20:41:22.784Z,9.83
2022-10-16T20:43:53.348Z,9.82
2022-10-16T20:46:24.409Z,9.72
2022-10-16T20:48:53.761Z,9.73
2022-10-16T20:51:23.987Z,9.72
2022-10-16T20:53:55.554Z,9.70
2022-10-16T20:56:24.673Z,9.82
2022-10-16T20:58:54.417Z,9.77
2022-10-16T21:01:24.345Z,9.75
2022-10-16T21:03:54.384Z,9.70
2022-10-16T21:06:22.662Z,9.70
2022-10-16T21:08:50.941Z,9.74
2022-10-16T21:11:21.533Z,9.75
2022-10-16T21:13:50.219Z,9.80
2022-10-16T21:16:19.910Z,9.76
2022-10-16T21:18:48.236Z,9.69
2022-10-16T21:21:26.909Z,9.69
2022-10-16T21:23:55.751Z,9.69
2022-10-16T21:26:26.433Z,9.73
2022-10-16T21:28:55.265Z,9.80
2022-10-16T21:31:25.008Z,9.78
2022-10-16T21:33:53.614Z,9.86
2022-10-16T21:36:23.596Z,9.88
2022-10-16T21:38:52.285Z,9.92
2022-10-16T21:41:23.941Z,9.98
2022-10-16T21:43:52.466Z,10.02
2022-10-16T21:46:23.155Z,10.03
2022-10-16T21:48:56.105Z,10.05
2022-10-16T21:51:27.315Z,10.09
2022-10-16T21:53:55.541Z,10.08
2022-10-16T21:56:24.407Z,10.20
2022-10-16T21:58:53.738Z,10.21
2022-10-16T22:01:23.814Z,10.27
2022-10-16T22:03:52.465Z,10.28
2022-10-16T22:06:24.222Z,10.37
2022-10-16T22:08:53.793Z,10.38
2022-10-16T22:11:23.827Z,10.46
2022-10-16T22:13:54.109Z,10.58
2022-10-16T22:16:24.772Z,10.66
2022-10-16T22:18:53.628Z,10.65
2022-10-16T22:21:23.944Z,10.75
2022-10-16T22:23:52.073Z,10.69
2022-10-16T22:26:20.368Z,10.78
2022-10-16T22:28:48.597Z,10.85
2022-10-16T22:31:17.558Z,10.87
2022-10-16T22:33:45.990Z,10.99
2022-10-16T22:36:15.819Z,11.04
2022-10-16T22:38:45.290Z,11.05
2022-10-16T22:41:14.991Z,11.09
2022-10-16T22:43:45.075Z,11.16
2022-10-16T22:46:16.039Z,11.11
2022-10-16T22:48:44.792Z,11.18
2022-10-16T22:51:16.882Z,11.21
2022-10-16T22:53:47.900Z,11.29
2022-10-16T22:56:16.818Z,11.31
2022-10-16T22:58:45.823Z,11.29
2022-10-16T23:01:16.565Z,11.33
2022-10-16T23:03:45.094Z,11.36
2022-10-16T23:06:13.292Z,11.39
2022-10-16T23:08:41.642Z,11.40
2022-10-16T23:11:13.294Z,11.39
2022-10-16T23:13:45.449Z,11.37
2022-10-16T23:16:15.809Z,11.30
2022-10-16T23:18:45.875Z,11.35
2022-10-16T23:21:16.468Z,11.40
2022-10-16T23:23:45.422Z,11.37
2022-10-16T23:26:17.624Z,11.41
2022-10-16T23:28:45.756Z,11.42
2022-10-16T23:31:14.949Z,11.46
2022-10-16T23:33:43.663Z,11.47
2022-10-16T23:36:14.909Z,11.39
2022-10-16T23:38:43.518Z,11.40
2022-10-16T23:41:12.058Z,11.32
2022-10-16T23:43:41.990Z,11.30
2022-10-16T23:46:12.216Z,11.28
2022-10-16T23:48:41.096Z,11.27
2022-10-16T23:51:10.409Z,11.23
2022-10-16T23:53:38.806Z,11.21
2022-10-16T23:56:07.348Z,11.28
2022-10-16T23:58:35.905Z,11.26
